createdAt,value
2023-08-09T00:02:08.030Z,100058.56
2023-08-09T00:04:56.740Z,100062.47
2023-08-09T00:07:45.591Z,100064.31
2023-08-09T00:10:35.044Z,100048.91
2023-08-09T00:13:23.885Z,100042.50
2023-08-09T00:16:12.795Z,100048.28
2023-08-09T00:19:03.394Z,100054.06
2023-08-09T00:21:52.327Z,100042.97
2023-08-09T00:24:41.241Z,100031.84
2023-08-09T00:27:30.507Z,100023.25
2023-08-09T00:30:19.266Z,100007.41
2023-08-09T00:33:08.391Z,100006.00
2023-08-09T00:35:59.025Z,100014.00
2023-08-09T00:38:47.871Z,100020.38
2023-08-09T00:41:36.762Z,100017.88
2023-08-09T00:44:25.615Z,100019.94
2023-08-09T00:47:14.306Z,100015.84
2023-08-09T00:50:03.836Z,100001.69
2023-08-09T00:52:53.976Z,100002.28
2023-08-09T00:55:42.833Z,100006.00
2023-08-09T00:58:31.646Z,99995.28
2023-08-09T01:01:20.431Z,99998.34
2023-08-09T01:04:09.370Z,99989.53
2023-08-09T01:07:05.229Z,99999.41
2023-08-09T01:10:02.520Z,99999.81
2023-08-09T01:12:55.247Z,99994.06
2023-08-09T01:15:45.352Z,100006.00
2023-08-09T01:18:35.982Z,100000.66
2023-08-09T01:21:29.399Z,100004.34
2023-08-09T01:24:20.028Z,100011.31
2023-08-09T01:27:10.062Z,100004.94
2023-08-09T01:29:58.996Z,100011.94
2023-08-09T01:32:48.011Z,100005.16
2023-08-09T01:35:43.497Z,99996.56
2023-08-09T01:38:37.950Z,99999.41
2023-08-09T01:41:28.599Z,99992.66
2023-08-09T01:44:18.371Z,99999.00
2023-08-09T01:47:08.795Z,100005.34
2023-08-09T01:49:57.705Z,99999.84
2023-08-09T01:52:46.431Z,99999.00
2023-08-09T01:55:35.439Z,99990.34
2023-08-09T01:58:25.864Z,99999.00
2023-08-09T02:01:14.682Z,99990.78
2023-08-09T02:04:04.348Z,99980.72
2023-08-09T02:06:53.271Z,99992.22
2023-08-09T02:09:42.194Z,99977.63
2023-08-09T02:12:31.036Z,99982.59
2023-08-09T02:15:23.251Z,99980.53
2023-08-09T02:18:12.072Z,99983.19
2023-08-09T02:21:03.308Z,99977.25
2023-08-09T02:23:52.108Z,99982.78
2023-08-09T02:26:41.214Z,99976.41
2023-08-09T02:29:31.042Z,99960.38
2023-08-09T02:32:21.412Z,99956.66
2023-08-09T02:35:11.225Z,99949.28
2023-08-09T02:37:59.952Z,99948.06
2023-08-09T02:40:50.306Z,99953.22
2023-08-09T02:43:39.298Z,99950.94
2023-08-09T02:46:28.035Z,99946.44
2023-08-09T02:49:18.152Z,99944.19
2023-08-09T02:52:07.397Z,99943.56
2023-08-09T02:54:56.259Z,99935.56
2023-08-09T02:57:45.063Z,99926.28
2023-08-09T03:00:34.626Z,99930.81
2023-08-09T03:03:24.026Z,99937.56
2023-08-09T03:06:14.141Z,99929.19
2023-08-09T03:09:03.629Z,99926.09
2023-08-09T03:11:52.510Z,99932.22
2023-08-09T03:14:41.417Z,99925.25
2023-08-09T03:17:30.341Z,99934.09
2023-08-09T03:20:19.339Z,99935.31
2023-08-09T03:23:10.719Z,99937.81
2023-08-09T03:25:59.577Z,99937.81
2023-08-09T03:28:48.307Z,99933.66
2023-08-09T03:31:37.162Z,99934.50
2023-08-09T03:34:25.905Z,99941.06
2023-08-09T03:37:14.807Z,99929.19
2023-08-09T03:40:10.564Z,99928.75
2023-08-09T03:42:59.333Z,99927.13
2023-08-09T03:45:48.279Z,99929.59
2023-08-09T03:48:37.081Z,99936.19
2023-08-09T03:51:25.947Z,99925.06
2023-08-09T03:54:14.631Z,99930.81
2023-08-09T03:57:05.054Z,99919.31
2023-08-09T03:59:54.266Z,99915.00
2023-08-09T04:02:43.134Z,99920.97
2023-08-09T04:05:31.929Z,99927.94
2023-08-09T04:08:22.637Z,99928.53
2023-08-09T04:11:11.456Z,99921.16
2023-08-09T04:14:01.746Z,99928.16
2023-08-09T04:16:50.602Z,99933.50
2023-08-09T04:19:39.766Z,99931.66
2023-08-09T04:22:29.316Z,99939.88
2023-08-09T04:25:19.427Z,99943.94
2023-08-09T04:28:11.092Z,99937.41
2023-08-09T04:31:04.439Z,99943.56
2023-08-09T04:33:53.340Z,99942.53
2023-08-09T04:36:42.277Z,99953.84
2023-08-09T04:39:30.966Z,99947.25
2023-08-09T04:42:19.888Z,99949.69
2023-08-09T04:45:10.897Z,99955.66
2023-08-09T04:48:02.581Z,99955.88
2023-08-09T04:50:53.380Z,99964.06
2023-08-09T04:53:43.720Z,99967.16
2023-08-09T04:56:32.554Z,99978.63
2023-08-09T04:59:21.205Z,99988.31
2023-08-09T05:02:09.928Z,99988.13
2023-08-09T05:04:59.943Z,100000.66
2023-08-09T05:07:48.856Z,100006.63
2023-08-09T05:10:38.038Z,100021.63
2023-08-09T05:13:27.457Z,100024.28
2023-08-09T05:16:16.405Z,100032.47
2023-08-09T05:19:05.710Z,100038.03
2023-08-09T05:21:56.010Z,100043.59
2023-08-09T05:24:44.710Z,100054.47
2023-08-09T05:27:33.672Z,100052.03
2023-08-09T05:30:23.352Z,100055.31
2023-08-09T05:33:12.083Z,100066.00
2023-08-09T05:36:01.320Z,100057.75
2023-08-09T05:38:51.747Z,100068.84
2023-08-09T05:41:40.705Z,100065.16
2023-08-09T05:44:29.937Z,100065.38
2023-08-09T05:47:18.952Z,100062.06
2023-08-09T05:50:09.162Z,100069.69
2023-08-09T05:52:57.871Z,100043.59
2023-08-09T05:55:48.005Z,100044.41
2023-08-09T05:58:36.709Z,100038.03
2023-08-09T06:01:25.472Z,100036.41
2023-08-09T06:04:14.536Z,100041.34
2023-08-09T06:07:03.607Z,100040.50
2023-08-09T06:09:52.693Z,100044.63
2023-08-09T06:12:42.984Z,100032.91
2023-08-09T06:15:31.952Z,100034.75
2023-08-09T06:18:20.721Z,100048.31
2023-08-09T06:21:09.627Z,100054.28
2023-08-09T06:23:58.406Z,100036.38
2023-08-09T06:26:47.158Z,100023.44
2023-08-09T06:29:37.288Z,100024.50
2023-08-09T06:32:26.006Z,100024.69
2023-08-09T06:35:15.385Z,100032.69
2023-08-09T06:38:14.664Z,100026.97
2023-08-09T06:41:04.349Z,100018.94
2023-08-09T06:43:53.078Z,100015.88
2023-08-09T06:46:44.290Z,100008.66
2023-08-09T06:49:33.842Z,100015.03
2023-08-09T06:52:22.911Z,100018.72
2023-08-09T06:55:12.485Z,100010.94
2023-08-09T06:58:01.154Z,100021.63
2023-08-09T07:00:50.467Z,100022.84
2023-08-09T07:03:40.662Z,100024.06
2023-08-09T07:06:29.329Z,100020.38
2023-08-09T07:09:19.478Z,100028.59
2023-08-09T07:12:08.718Z,100022.00
2023-08-09T07:14:57.462Z,100010.50
2023-08-09T07:17:47.522Z,100025.94
2023-08-09T07:20:40.067Z,100024.28
2023-08-09T07:23:41.256Z,100036.38
2023-08-09T07:26:41.769Z,100040.91
2023-08-09T07:29:30.735Z,100045.03
2023-08-09T07:32:19.489Z,100058.59
2023-08-09T07:35:09.867Z,100062.06
2023-08-09T07:37:59.968Z,100078.72
2023-08-09T07:40:48.822Z,100087.78
2023-08-09T07:43:37.441Z,100082.00
2023-08-09T07:46:26.185Z,100097.00
2023-08-09T07:49:14.859Z,100096.78
2023-08-09T07:52:03.935Z,100095.97
2023-08-09T07:54:54.249Z,100109.13
2023-08-09T07:57:43.038Z,100108.72
2023-08-09T08:00:35.249Z,100108.91
2023-08-09T08:03:27.873Z,100117.75
2023-08-09T08:06:18.867Z,100120.03
2023-08-09T08:09:13.681Z,100124.75
2023-08-09T08:12:13.440Z,100122.28
2023-08-09T08:15:11.036Z,100131.72
2023-08-09T08:17:59.834Z,100130.09
2023-08-09T08:20:48.515Z,100120.44
2023-08-09T08:23:38.038Z,100128.84
2023-08-09T08:26:26.851Z,100122.66
2023-08-09T08:29:17.141Z,100132.13
2023-08-09T08:32:09.432Z,100131.91
2023-08-09T08:34:58.304Z,100137.91
2023-08-09T08:37:48.859Z,100134.59
2023-08-09T08:40:41.123Z,100142.41
2023-08-09T08:43:30.090Z,100143.25
2023-08-09T08:46:22.949Z,100140.34
2023-08-09T08:49:16.053Z,100156.38
2023-08-09T08:52:08.841Z,100157.63
2023-08-09T08:54:58.438Z,100159.03
2023-08-09T08:57:48.455Z,100165.00
2023-08-09T09:00:37.478Z,100167.06
2023-08-09T09:03:27.652Z,100178.34
2023-08-09T09:06:16.471Z,100177.31
2023-08-09T09:09:12.448Z,100180.63
2023-08-09T09:12:04.296Z,100182.66
2023-08-09T09:14:54.034Z,100181.66
2023-08-09T09:17:43.961Z,100180.22
2023-08-09T09:20:35.065Z,100184.31
2023-08-09T09:23:28.902Z,100179.19
2023-08-09T09:26:19.219Z,100194.19
2023-08-09T09:29:10.479Z,100188.84
2023-08-09T09:32:02.183Z,100191.31
2023-08-09T09:34:53.384Z,100198.69
2023-08-09T09:37:43.694Z,100198.50
2023-08-09T09:40:36.712Z,100200.34
2023-08-09T09:43:26.057Z,100200.75
2023-08-09T09:46:35.700Z,100197.28
2023-08-09T09:49:26.111Z,100193.75
2023-08-09T09:52:15.912Z,100191.31
2023-08-09T09:55:08.445Z,100187.63
2023-08-09T09:57:58.138Z,100192.13
2023-08-09T10:00:50.181Z,100189.69
2023-08-09T10:03:51.823Z,100199.09
2023-08-09T10:06:44.308Z,100198.47
2023-08-09T10:09:34.869Z,100196.59
2023-08-09T10:12:27.738Z,100193.69
2023-08-09T10:15:19.577Z,100196.59
2023-08-09T10:18:14.641Z,100203.16
2023-08-09T10:21:06.804Z,100197.00
2023-08-09T10:24:07.395Z,100197.41
2023-08-09T10:26:58.277Z,100195.34
2023-08-09T10:29:59.827Z,100206.47
2023-08-09T10:32:53.245Z,100210.16
2023-08-09T10:35:50.946Z,100215.16
2023-08-09T10:38:47.308Z,100220.09
2023-08-09T10:41:38.050Z,100212.28
2023-08-09T10:44:42.059Z,100211.03
2023-08-09T10:47:33.694Z,100211.66
2023-08-09T10:50:23.225Z,100213.09
2023-08-09T10:53:12.783Z,100219.25
2023-08-09T10:56:05.038Z,100225.03
2023-08-09T10:58:54.940Z,100220.91
2023-08-09T11:01:44.813Z,100218.44
2023-08-09T11:04:35.240Z,100216.81
2023-08-09T11:07:23.960Z,100218.22
2023-08-09T11:10:14.319Z,100220.09
2023-08-09T11:13:08.590Z,100213.47
2023-08-09T11:15:57.311Z,100209.78
2023-08-09T11:18:45.968Z,100216.78
2023-08-09T11:21:42.674Z,100216.16
2023-08-09T11:24:31.625Z,100225.84
2023-08-09T11:27:20.598Z,100216.56
2023-08-09T11:30:10.802Z,100227.06
2023-08-09T11:33:01.128Z,100226.66
2023-08-09T11:35:50.436Z,100234.47
2023-08-09T11:38:42.588Z,100230.78
2023-08-09T11:41:42.774Z,100245.97
2023-08-09T11:44:33.612Z,100242.69
2023-08-09T11:47:22.391Z,100250.53
2023-08-09T11:50:13.810Z,100252.78
2023-08-09T11:53:02.492Z,100257.09
2023-08-09T11:55:52.600Z,100260.34
2023-08-09T11:58:44.920Z,100254.59
2023-08-09T12:01:38.553Z,100257.91
2023-08-09T12:04:30.496Z,100255.84
2023-08-09T12:07:19.721Z,100262.00
2023-08-09T12:10:12.723Z,100255.44
2023-08-09T12:13:03.617Z,100264.69
2023-08-09T12:15:52.417Z,100267.97
2023-08-09T12:18:41.223Z,100259.94
2023-08-09T12:21:29.895Z,100269.00
2023-08-09T12:24:18.713Z,100272.50
2023-08-09T12:27:07.506Z,100274.75
2023-08-09T12:29:58.210Z,100270.66
2023-08-09T12:32:47.081Z,100260.78
2023-08-09T12:35:35.777Z,100276.41
2023-08-09T12:38:25.242Z,100273.72
2023-08-09T12:41:15.354Z,100273.94
2023-08-09T12:44:04.068Z,100278.88
2023-08-09T12:46:55.164Z,100280.72
2023-08-09T12:49:44.036Z,100280.94
2023-08-09T12:52:32.858Z,100278.44
2023-08-09T12:55:21.611Z,100278.03
2023-08-09T12:58:10.885Z,100287.94
2023-08-09T13:01:00.924Z,100291.22
2023-08-09T13:03:51.429Z,100285.88
2023-08-09T13:06:40.126Z,100291.84
2023-08-09T13:09:29.832Z,100287.94
2023-08-09T13:12:18.586Z,100283.00
2023-08-09T13:15:09.282Z,100288.13
2023-08-09T13:17:57.971Z,100288.09
2023-08-09T13:20:48.553Z,100293.69
2023-08-09T13:23:37.194Z,100293.88
2023-08-09T13:26:27.184Z,100294.47
2023-08-09T13:29:16.051Z,100296.13
2023-08-09T13:32:04.847Z,100300.69
2023-08-09T13:34:54.205Z,100308.09
2023-08-09T13:37:44.357Z,100296.97
2023-08-09T13:40:33.384Z,100297.41
2023-08-09T13:43:22.106Z,100295.72
2023-08-09T13:46:11.074Z,100310.56
2023-08-09T13:49:02.184Z,100310.16
2023-08-09T13:51:51.438Z,100301.91
2023-08-09T13:54:41.765Z,100305.63
2023-08-09T13:57:30.453Z,100313.66
2023-08-09T14:00:19.587Z,100318.16
2023-08-09T14:03:10.048Z,100315.09
2023-08-09T14:05:59.027Z,100315.50
2023-08-09T14:08:47.737Z,100314.28
2023-08-09T14:11:37.930Z,100317.78
2023-08-09T14:14:27.300Z,100318.59
2023-08-09T14:17:16.057Z,100322.91
2023-08-09T14:20:06.976Z,100319.19
2023-08-09T14:22:55.713Z,100323.75
2023-08-09T14:25:44.450Z,100329.09
2023-08-09T14:28:34.770Z,100329.88
2023-08-09T14:31:23.625Z,100328.47
2023-08-09T14:34:12.448Z,100332.56
2023-08-09T14:37:02.737Z,100328.66
2023-08-09T14:39:51.452Z,100327.44
2023-08-09T14:42:42.255Z,100322.72
2023-08-09T14:45:33.912Z,100325.38
2023-08-09T14:48:22.674Z,100331.34
2023-08-09T14:51:11.459Z,100328.25
2023-08-09T14:54:00.211Z,100338.94
2023-08-09T14:56:49.226Z,100341.00
2023-08-09T14:59:37.831Z,100334.84
2023-08-09T15:02:27.949Z,100336.69
2023-08-09T15:05:16.752Z,100340.59
2023-08-09T15:08:07.535Z,100331.53
2023-08-09T15:10:59.047Z,100335.22
2023-08-09T15:13:47.781Z,100335.47
2023-08-09T15:16:36.475Z,100339.56
2023-08-09T15:19:26.868Z,100342.66
2023-08-09T15:22:15.546Z,100341.44
2023-08-09T15:25:18.901Z,100342.25
2023-08-09T15:28:08.465Z,100346.78
2023-08-09T15:30:58.102Z,100348.41
2023-08-09T15:33:46.966Z,100355.44
2023-08-09T15:36:37.034Z,100351.69
2023-08-09T15:39:26.117Z,100355.41
2023-08-09T15:42:18.277Z,100358.69
2023-08-09T15:45:08.612Z,100351.28
2023-08-09T15:47:57.435Z,100349.25
2023-08-09T15:50:46.194Z,100354.59
2023-08-09T15:53:36.465Z,100359.69
2023-08-09T15:56:25.420Z,100354.16
2023-08-09T15:59:15.241Z,100353.72
2023-08-09T16:02:04.603Z,100349.63
2023-08-09T16:04:53.329Z,100348.41
2023-08-09T16:07:42.279Z,100351.06
2023-08-09T16:10:32.568Z,100351.28
2023-08-09T16:13:21.723Z,100353.72
2023-08-09T16:16:20.324Z,100360.31
2023-08-09T16:19:13.173Z,100369.16
2023-08-09T16:22:01.925Z,100369.63
2023-08-09T16:24:50.663Z,100371.25
2023-08-09T16:27:41.246Z,100374.34
2023-08-09T16:30:30.125Z,100371.84
2023-08-09T16:33:18.744Z,100370.63
2023-08-09T16:36:08.038Z,100369.78
2023-08-09T16:38:56.750Z,100372.69
2023-08-09T16:41:45.531Z,100381.72
2023-08-09T16:44:35.723Z,100387.50
2023-08-09T16:47:24.459Z,100386.69
2023-08-09T16:50:13.422Z,100394.50
2023-08-09T16:53:02.099Z,100387.72
2023-08-09T16:55:50.758Z,100386.09
2023-08-09T16:58:39.655Z,100391.44
2023-08-09T17:01:29.775Z,100397.81
2023-08-09T17:04:18.508Z,100394.72
2023-08-09T17:07:07.974Z,100393.28
2023-08-09T17:09:56.697Z,100397.00
2023-08-09T17:12:45.387Z,100400.28
2023-08-09T17:15:34.387Z,100394.31
2023-08-09T17:18:24.491Z,100394.31
2023-08-09T17:21:13.200Z,100396.56
2023-08-09T17:24:02.113Z,100392.44
2023-08-09T17:26:51.148Z,100407.44
2023-08-09T17:29:39.860Z,100408.47
2023-08-09T17:32:28.629Z,100405.81
2023-08-09T17:35:18.976Z,100405.38
2023-08-09T17:38:07.722Z,100407.66
2023-08-09T17:40:57.299Z,100412.00
2023-08-09T17:43:45.923Z,100411.38
2023-08-09T17:46:34.737Z,100418.56
2023-08-09T17:49:23.480Z,100417.97
2023-08-09T17:52:13.545Z,100419.22
2023-08-09T17:55:02.269Z,100416.28
2023-08-09T17:57:51.895Z,100417.13
2023-08-09T18:00:41.882Z,100423.69
2023-08-09T18:03:30.568Z,100428.00
2023-08-09T18:06:20.529Z,100435.66
2023-08-09T18:09:11.638Z,100441.44
2023-08-09T18:12:01.593Z,100441.41
2023-08-09T18:14:50.261Z,100446.75
2023-08-09T18:17:41.345Z,100446.34
2023-08-09T18:20:29.991Z,100446.19
2023-08-09T18:23:18.869Z,100452.38
2023-08-09T18:26:08.861Z,100453.19
2023-08-09T18:28:57.551Z,100455.84
2023-08-09T18:31:46.288Z,100455.44
2023-08-09T18:34:35.057Z,100462.03
2023-08-09T18:37:23.769Z,100472.53
2023-08-09T18:40:13.707Z,100472.72
2023-08-09T18:43:04.370Z,100479.34
2023-08-09T18:45:53.014Z,100476.47
2023-08-09T18:48:41.692Z,100476.44
2023-08-09T18:51:30.348Z,100484.25
2023-08-09T18:54:19.168Z,100479.31
2023-08-09T18:57:07.969Z,100491.66
2023-08-09T18:59:58.160Z,100495.38
2023-08-09T19:02:48.159Z,100491.66
2023-08-09T19:05:37.108Z,100500.75
2023-08-09T19:08:25.798Z,100508.34
2023-08-09T19:11:14.505Z,100506.09
2023-08-09T19:14:04.392Z,100515.56
2023-08-09T19:16:54.393Z,100521.13
2023-08-09T19:19:43.179Z,100522.56
2023-08-09T19:22:31.848Z,100524.22
2023-08-09T19:25:21.124Z,100520.94
2023-08-09T19:28:10.045Z,100530.38
2023-08-09T19:31:00.682Z,100527.50
2023-08-09T19:33:50.727Z,100524.66
2023-08-09T19:36:39.509Z,100531.84
2023-08-09T19:39:30.617Z,100538.63
2023-08-09T19:42:19.555Z,100538.22
2023-08-09T19:45:09.817Z,100532.88
2023-08-09T19:48:00.416Z,100543.56
2023-08-09T19:50:50.850Z,100544.41
2023-08-09T19:53:39.792Z,100549.34
2023-08-09T19:56:28.604Z,100553.44
2023-08-09T19:59:17.255Z,100553.25
2023-08-09T20:02:07.161Z,100551.81
2023-08-09T20:04:55.915Z,100555.94
2023-08-09T20:07:46.643Z,100563.78
2023-08-09T20:10:37.917Z,100567.06
2023-08-09T20:13:26.708Z,100570.78
2023-08-09T20:16:15.411Z,100565.59
2023-08-09T20:19:04.235Z,100567.25
2023-08-09T20:21:52.935Z,100569.91
2023-08-09T20:24:44.884Z,100572.19
2023-08-09T20:27:33.624Z,100575.50
2023-08-09T20:30:22.325Z,100580.22
2023-08-09T20:33:11.323Z,100576.13
2023-08-09T20:35:59.973Z,100576.94
2023-08-09T20:38:48.897Z,100576.50
2023-08-09T20:41:38.950Z,100582.09
2023-08-09T20:44:27.640Z,100585.38
2023-08-09T20:47:16.321Z,100584.75
2023-08-09T20:50:06.106Z,100597.09
2023-08-09T20:52:54.945Z,100593.81
2023-08-09T20:55:44.280Z,100598.31
2023-08-09T20:58:34.400Z,100599.19
2023-08-09T21:01:24.141Z,100598.75
2023-08-09T21:04:12.846Z,100598.56
2023-08-09T21:07:01.488Z,100612.34
2023-08-09T21:09:50.223Z,100605.56
2023-08-09T21:12:41.524Z,100611.94
2023-08-09T21:15:31.816Z,100614.81
2023-08-09T21:18:20.452Z,100610.25
2023-08-09T21:21:13.744Z,100607.81
2023-08-09T21:32:34.556Z,100635.00
2023-08-09T21:35:23.493Z,100648.38
2023-08-09T21:38:15.726Z,100631.66
2023-08-09T21:41:04.477Z,100626.72
2023-08-09T21:43:53.340Z,100628.56
2023-08-09T21:46:42.086Z,100635.31
2023-08-09T21:49:33.304Z,100638.97
2023-08-09T21:52:22.143Z,100632.97
2023-08-09T21:55:11.215Z,100639.31
2023-08-09T21:57:59.911Z,100633.09
2023-08-09T22:00:48.582Z,100626.50
2023-08-09T22:03:37.521Z,100639.63
2023-08-09T22:06:27.767Z,100638.78
2023-08-09T22:09:16.508Z,100635.50
2023-08-09T22:12:05.931Z,100639.97
2023-08-09T22:14:54.841Z,100642.03
2023-08-09T22:17:43.655Z,100640.56
2023-08-09T22:20:32.459Z,100642.66
2023-08-09T22:23:22.579Z,100640.78
2023-08-09T22:26:11.330Z,100638.63
2023-08-09T22:29:00.043Z,100647.66
2023-08-09T22:31:48.845Z,100648.66
2023-08-09T22:34:37.615Z,100655.41
2023-08-09T22:37:26.495Z,100644.09
2023-08-09T22:40:16.605Z,100649.84
2023-08-09T22:43:05.609Z,100649.63
2023-08-09T22:45:54.417Z,100645.53
2023-08-09T22:48:43.338Z,100647.53
2023-08-09T22:51:32.058Z,100637.25
2023-08-09T22:54:20.792Z,100649.75
2023-08-09T22:57:12.694Z,100654.44
2023-08-09T23:00:01.586Z,100652.47
2023-08-09T23:02:50.427Z,100661.28
2023-08-09T23:05:39.456Z,100666.81
2023-08-09T23:08:28.991Z,100660.56
2023-08-09T23:11:18.264Z,100665.72
2023-08-09T23:14:08.561Z,100666.53
2023-08-09T23:16:57.671Z,100666.09
2023-08-09T23:19:46.392Z,100665.28
2023-08-09T23:22:35.199Z,100667.06
2023-08-09T23:25:24.196Z,100674.44
2023-08-09T23:28:12.876Z,100675.41
2023-08-09T23:31:03.016Z,100685.25
2023-08-09T23:33:51.680Z,100678.00
2023-08-09T23:36:40.501Z,100681.72
2023-08-09T23:39:29.209Z,100687.97
2023-08-09T23:42:17.906Z,100690.56
2023-08-09T23:45:07.641Z,100687.53
2023-08-09T23:47:58.289Z,100692.22
2023-08-09T23:50:47.073Z,100693.25
2023-08-09T23:53:36.086Z,100690.56
2023-08-09T23:56:24.911Z,100690.19
2023-08-09T23:59:13.756Z,100687.31
